Time;durP1;ratioP1;P1;durP2;ratioP2;P2;SDS_P1;SDS_P2;PMS_P1;PMS_P2;Temp;Humidity;BMP_temperature;BMP_pressure;BME280_temperature;BME280_humidity;BME280_pressure;Samples;Min_cycle;Max_cycle;Signal;HPM_P1;HPM_P2
2022/05/23 00:01:12;;;;;;;7.63;7.17;;;18.00;99.90;;;;;;6116685;23;20404;-88
2022/05/23 00:03:37;;;;;;;6.80;6.40;;;18.00;99.90;;;;;;6118194;23;20196;-89
2022/05/23 00:06:03;;;;;;;7.00;6.57;;;17.90;99.90;;;;;;6114517;23;20433;-88
2022/05/23 00:08:29;;;;;;;8.13;7.53;;;17.90;99.90;;;;;;6119374;23;20149;-88
2022/05/23 00:10:54;;;;;;;7.37;6.67;;;17.90;99.90;;;;;;6116713;23;20154;-88
2022/05/23 00:13:20;;;;;;;6.67;6.47;;;17.90;99.90;;;;;;6118638;23;20417;-87
2022/05/23 00:15:46;;;;;;;7.47;6.83;;;;;;;;;;6116287;23;20660;-87
2022/05/23 00:18:11;;;;;;;7.20;6.70;;;17.80;99.90;;;;;;6118529;23;20227;-88
2022/05/23 00:20:37;;;;;;;6.37;5.97;;;;;;;;;;6090515;23;20872;-88
2022/05/23 00:23:03;;;;;;;7.90;6.50;;;18.00;99.90;;;;;;6092158;23;20158;-88
2022/05/23 00:25:28;;;;;;;7.20;6.70;;;18.00;99.90;;;;;;6117453;23;20431;-88
2022/05/23 00:27:55;;;;;;;7.37;6.77;;;18.20;99.90;;;;;;6090593;23;20161;-88
2022/05/23 00:30:24;;;;;;;7.77;6.60;;;18.10;99.90;;;;;;6117740;22;20180;-88
2022/05/23 00:35:35;;;;;;;6.33;5.93;;;18.10;99.90;;;;;;6116895;23;20426;-88
2022/05/23 00:38:01;;;;;;;7.97;7.17;;;18.10;99.90;;;;;;6118754;23;20385;-88
2022/05/23 00:40:38;;;;;;;6.70;6.30;;;17.80;99.90;;;;;;6117761;23;20413;-88
2022/05/23 00:43:22;;;;;;;7.23;6.67;;;18.10;99.90;;;;;;6118179;23;20396;-89
2022/05/23 00:45:54;;;;;;;6.67;6.23;;;19.20;99.90;;;;;;6116147;23;20552;-89
2022/05/23 00:48:25;;;;;;;7.20;6.63;;;17.80;99.90;;;;;;6117732;23;20405;-88
2022/05/23 00:50:57;;;;;;;7.97;7.20;;;19.10;99.90;;;;;;6117102;23;20359;-88
2022/05/23 00:53:30;;;;;;;6.80;6.33;;;17.40;99.90;;;;;;6118059;23;20401;-88
2022/05/23 00:55:57;;;;;;;7.70;7.13;;;17.50;99.90;;;;;;6090741;23;20463;-88
2022/05/23 00:58:27;;;;;;;7.60;7.30;;;17.10;99.90;;;;;;6117556;23;20398;-88
2022/05/23 01:00:57;;;;;;;7.33;6.70;;;17.20;99.90;;;;;;6116490;23;20415;-89
2022/05/23 01:03:22;;;;;;;10.90;7.00;;;18.70;99.90;;;;;;6117805;23;20388;-89
2022/05/23 01:05:49;;;;;;;7.77;7.07;;;17.50;99.90;;;;;;6111897;23;20539;-88
2022/05/23 01:08:16;;;;;;;7.27;6.67;;;17.40;99.90;;;;;;6116753;23;20133;-88
2022/05/23 01:10:43;;;;;;;8.47;7.67;;;18.80;99.90;;;;;;6089554;23;20393;-88
2022/05/23 01:13:09;;;;;;;6.70;6.20;;;17.00;99.90;;;;;;6091449;23;20924;-88
2022/05/23 01:15:35;;;;;;;7.77;7.23;;;17.40;99.90;;;;;;6115838;23;20400;-88
2022/05/23 01:18:02;;;;;;;11.57;7.87;;;17.50;99.90;;;;;;6117587;23;20613;-88
2022/05/23 01:20:29;;;;;;;7.43;7.00;;;17.60;99.90;;;;;;6117391;23;20385;-88
2022/05/23 01:22:57;;;;;;;7.33;6.80;;;17.80;99.90;;;;;;6115746;23;20385;-88
2022/05/23 01:25:28;;;;;;;7.23;6.73;;;17.40;99.90;;;;;;6117653;23;20449;-87
2022/05/23 01:28:34;;;;;;;8.00;7.37;;;17.50;99.90;;;;;;6115111;23;20465;-87
2022/05/23 01:31:59;;;;;;;7.50;7.10;;;17.50;99.90;;;;;;6115918;23;20401;-88
2022/05/23 01:35:24;;;;;;;7.60;6.90;;;17.40;99.90;;;;;;6117035;23;20389;-87
2022/05/23 01:38:50;;;;;;;8.70;6.43;;;17.30;99.90;;;;;;6115524;23;20396;-88
2022/05/23 01:42:15;;;;;;;7.10;6.40;;;17.40;99.90;;;;;;6118271;23;20908;-88
2022/05/23 01:45:41;;;;;;;6.63;6.20;;;18.10;99.90;;;;;;6118501;23;20444;-88
2022/05/23 01:49:06;;;;;;;6.83;6.47;;;17.50;99.90;;;;;;6116460;23;20397;-88
2022/05/23 01:52:31;;;;;;;7.07;6.77;;;18.80;99.90;;;;;;6117831;23;20401;-88
2022/05/23 01:55:58;;;;;;;7.00;6.30;;;17.20;99.90;;;;;;6117629;23;20905;-88
2022/05/23 02:02:47;;;;;;;7.63;7.07;;;17.40;99.90;;;;;;6115741;23;20785;-88
2022/05/23 02:06:11;;;;;;;6.77;6.50;;;17.50;99.90;;;;;;6114872;23;20441;-89
2022/05/23 02:09:37;;;;;;;6.97;6.47;;;17.30;99.90;;;;;;6117094;23;20393;-88
2022/05/23 02:13:03;;;;;;;6.43;6.17;;;17.40;99.90;;;;;;6120663;23;20428;-89
2022/05/23 02:16:28;;;;;;;6.83;6.53;;;17.80;99.90;;;;;;6116175;23;20509;-87
2022/05/23 02:19:13;;;;;;;6.63;6.23;;;17.50;99.90;;;;;;6121029;23;20428;-89
2022/05/23 02:21:38;;;;;;;6.83;6.53;;;17.40;99.90;;;;;;6119297;23;20440;-88
2022/05/23 02:24:04;;;;;;;7.30;6.90;;;17.10;99.90;;;;;;6118196;23;20588;-88
2022/05/23 02:26:31;;;;;;;7.07;6.57;;;17.00;99.90;;;;;;6092720;23;20633;-89
2022/05/23 02:28:57;;;;;;;6.73;6.23;;;16.90;99.90;;;;;;6116731;22;20228;-88
2022/05/23 02:31:23;;;;;;;7.57;6.97;;;16.90;99.90;;;;;;6118452;23;20896;-89
2022/05/23 02:33:49;;;;;;;6.97;6.57;;;16.90;99.90;;;;;;6090741;23;21095;-89
2022/05/23 02:36:14;;;;;;;8.13;7.40;;;16.90;99.90;;;;;;6118774;23;20361;-89
2022/05/23 02:38:40;;;;;;;7.90;7.20;;;16.80;99.90;;;;;;6117512;23;20153;-88
2022/05/23 02:41:05;;;;;;;6.90;6.20;;;16.70;99.90;;;;;;6093521;23;20149;-89
2022/05/23 02:43:31;;;;;;;7.60;6.87;;;16.90;99.90;;;;;;6118995;23;20189;-89
2022/05/23 02:45:57;;;;;;;10.63;6.53;;;16.80;99.90;;;;;;6117712;23;20208;-89
2022/05/23 02:48:22;;;;;;;6.40;6.10;;;16.90;99.90;;;;;;6119239;23;20492;-88
2022/05/23 02:50:48;;;;;;;6.47;6.10;;;17.10;99.90;;;;;;6116689;23;20398;-88
2022/05/23 02:53:17;;;;;;;7.03;6.47;;;17.10;99.90;;;;;;6118832;23;20219;-88
2022/05/23 02:55:42;;;;;;;5.93;5.53;;;17.10;99.90;;;;;;6117555;23;20399;-88
2022/05/23 02:58:48;;;;;;;6.40;5.90;;;17.30;99.90;;;;;;6125888;23;20433;-88
2022/05/23 03:05:37;;;;;;;5.57;5.27;;;17.30;99.90;;;;;;6145960;23;20423;-89
2022/05/23 03:09:09;;;;;;;5.70;5.30;;;18.50;99.90;;;;;;6134721;22;20730;-89
2022/05/23 03:12:34;;;;;;;4.90;4.80;;;17.60;99.90;;;;;;6121481;23;20419;-88
2022/05/23 03:15:59;;;;;;;6.20;5.80;;;17.50;99.90;;;;;;6118812;23;20507;-88
2022/05/23 03:19:25;;;;;;;4.87;4.67;;;17.60;99.90;;;;;;6119043;23;20401;-89
2022/05/23 03:29:38;;;;;;;6.23;5.73;;;17.60;99.90;;;;;;6119149;22;20428;-88
2022/05/23 03:33:04;;;;;;;5.67;5.40;;;17.30;99.90;;;;;;6118331;23;20864;-88
2022/05/23 03:35:49;;;;;;;6.30;5.80;;;18.40;99.90;;;;;;6116465;23;20393;-88
2022/05/23 03:38:16;;;;;;;5.47;5.13;;;17.70;99.90;;;;;;6118405;23;20381;-88
2022/05/23 03:40:41;;;;;;;5.03;4.93;;;18.00;99.90;;;;;;6116828;23;20605;-88
2022/05/23 03:43:08;;;;;;;8.73;5.57;;;17.60;99.90;;;;;;6119909;23;20416;-88
2022/05/23 03:45:34;;;;;;;4.87;4.57;;;19.00;99.90;;;;;;6116440;23;20189;-87
2022/05/23 03:48:01;;;;;;;5.77;5.37;;;18.80;99.90;;;;;;6092419;23;20877;-89
2022/05/23 03:50:29;;;;;;;5.70;5.20;;;17.80;99.90;;;;;;6116521;23;20381;-88
2022/05/23 03:52:55;;;;;;;7.97;7.20;;;17.50;99.90;;;;;;6092015;23;20409;-89
2022/05/23 03:55:21;;;;;;;5.00;4.70;;;19.00;99.90;;;;;;6090758;23;20665;-89
2022/05/23 03:57:47;;;;;;;6.47;6.17;;;17.50;99.90;;;;;;6118268;23;20149;-88
2022/05/23 04:00:13;;;;;;;5.37;5.13;;;17.50;99.90;;;;;;6090460;23;20404;-89
2022/05/23 04:02:41;;;;;;;5.20;4.90;;;17.60;99.90;;;;;;6067986;23;20154;-89
2022/05/23 04:05:12;;;;;;;5.50;5.30;;;17.50;99.90;;;;;;6116389;23;20931;-88
2022/05/23 04:07:40;;;;;;;5.30;5.10;;;17.40;99.90;;;;;;6118339;23;20366;-88
2022/05/23 04:10:46;;;;;;;5.93;5.30;;;17.40;99.90;;;;;;6091036;23;20405;-88
2022/05/23 04:14:11;;;;;;;5.23;5.03;;;18.80;99.90;;;;;;6116064;23;20425;-89
2022/05/23 04:17:36;;;;;;;5.73;5.33;;;17.40;99.90;;;;;;6119128;23;20397;-89
2022/05/23 04:21:02;;;;;;;5.93;5.50;;;17.30;99.90;;;;;;6117220;23;20401;-89
2022/05/23 04:24:28;;;;;;;5.70;5.40;;;17.20;99.90;;;;;;6113969;23;20907;-89
2022/05/23 04:27:52;;;;;;;4.67;4.47;;;17.50;99.90;;;;;;6118248;23;21216;-89
2022/05/23 04:31:19;;;;;;;10.03;5.53;;;17.30;99.90;;;;;;6119229;22;20413;-88
2022/05/23 04:38:07;;;;;;;7.00;6.40;;;18.70;99.90;;;;;;6116588;23;20392;-89
2022/05/23 04:41:33;;;;;;;7.23;4.93;;;17.60;99.90;;;;;;6118939;23;20389;-90
2022/05/23 04:44:58;;;;;;;5.47;5.27;;;17.70;99.90;;;;;;6116635;23;20873;-89
2022/05/23 04:51:48;;;;;;;11.20;4.87;;;17.90;99.90;;;;;;6119029;23;20443;-89
2022/05/23 04:55:19;;;;;;;5.37;4.63;;;18.00;99.90;;;;;;6117227;23;20501;-87
2022/05/23 04:58:45;;;;;;;5.00;4.70;;;17.90;99.90;;;;;;6120125;23;20385;-89
2022/05/23 05:02:10;;;;;;;5.60;5.10;;;18.40;99.90;;;;;;6120669;23;20389;-89
2022/05/23 05:05:36;;;;;;;4.47;4.30;;;18.30;99.90;;;;;;6118180;23;20776;-89
2022/05/23 05:09:01;;;;;;;4.47;4.07;;;18.40;99.90;;;;;;6117664;23;20805;-88
2022/05/23 05:12:26;;;;;;;5.23;5.03;;;18.30;99.90;;;;;;6118434;23;20468;-88
2022/05/23 05:15:52;;;;;;;4.53;4.43;;;18.50;99.90;;;;;;6118763;23;20440;-90
2022/05/23 05:19:17;;;;;;;5.07;4.67;;;18.40;99.90;;;;;;6116857;23;20397;-88
2022/05/23 05:22:43;;;;;;;4.83;4.67;;;18.60;99.90;;;;;;6116552;23;20397;-89
2022/05/23 05:26:08;;;;;;;4.40;4.30;;;18.70;99.90;;;;;;6112271;23;20440;-87
2022/05/23 05:29:33;;;;;;;3.90;3.70;;;18.50;99.90;;;;;;6115218;23;20440;-87
2022/05/23 05:32:42;;;;;;;4.30;3.90;;;18.90;99.90;;;;;;6117095;23;21068;-88
2022/05/23 05:35:24;;;;;;;4.00;3.87;;;19.10;99.90;;;;;;6116916;23;20381;-87
2022/05/23 05:38:29;;;;;;;4.73;3.97;;;19.50;99.90;;;;;;6089947;23;20393;-89
2022/05/23 05:41:56;;;;;;;3.73;3.13;;;19.10;99.90;;;;;;6114914;23;20408;-89
2022/05/23 05:45:22;;;;;;;8.00;3.90;;;19.20;99.90;;;;;;6120968;23;20436;-88
2022/05/23 05:48:47;;;;;;;4.90;4.43;;;19.40;99.90;;;;;;6119142;23;20401;-89
2022/05/23 05:52:13;;;;;;;4.63;4.33;;;19.70;99.90;;;;;;6131398;23;20381;-90
2022/05/23 05:55:37;;;;;;;6.73;6.23;;;19.80;99.90;;;;;;6129423;23;20393;-92
2022/05/23 05:58:23;;;;;;;4.60;4.20;;;20.20;99.90;;;;;;6123295;23;20404;-91
2022/05/23 06:00:49;;;;;;;5.20;4.07;;;20.30;99.90;;;;;;6101540;23;20413;-90
2022/05/23 06:03:19;;;;;;;3.70;3.60;;;20.50;99.90;;;;;;6107076;23;20161;-92
2022/05/23 06:13:21;;;;;;;4.60;3.90;;;20.60;99.90;;;;;;6119880;23;20562;-92
2022/05/23 06:16:44;;;;;;;4.10;3.80;;;20.30;99.90;;;;;;6117082;23;20725;-90
2022/05/23 06:20:07;;;;;;;3.60;3.40;;;20.50;99.90;;;;;;6118987;23;20466;-91
2022/05/23 06:23:39;;;;;;;5.63;5.00;;;20.40;99.90;;;;;;6120126;23;20460;-92
2022/05/23 06:27:08;;;;;;;3.87;3.70;;;20.50;99.90;;;;;;6117010;23;20617;-92
2022/05/23 06:30:57;;;;;;;;;;;;;;;;;;;;;
2022/05/23 06:34:13;;;;;;;4.83;4.07;;;20.80;99.90;;;;;;6120305;23;20385;-93
2022/05/23 06:37:42;;;;;;;5.23;4.70;;;21.00;99.90;;;;;;6128067;23;21207;-93
2022/05/23 06:44:33;;;;;;;9.20;5.00;;;21.40;99.90;;;;;;6135214;22;20451;-92
2022/05/23 06:47:59;;;;;;;3.73;3.50;;;21.80;99.90;;;;;;6150465;22;20815;-90
2022/05/23 06:51:24;;;;;;;3.50;3.30;;;21.80;99.90;;;;;;6152214;22;20388;-90
2022/05/23 06:54:53;;;;;;;5.43;5.20;;;22.10;99.90;;;;;;6150175;23;20445;-92
2022/05/23 06:58:21;;;;;;;10.50;4.20;;;22.40;99.90;;;;;;6151474;23;20415;-91
2022/05/23 07:01:47;;;;;;;4.83;3.77;;;22.50;99.90;;;;;;6158148;23;20392;-90
2022/05/23 07:12:28;;;;;;;3.50;3.40;;;23.00;99.90;;;;;;6153570;23;20720;-92
2022/05/23 07:15:53;;;;;;;3.53;3.40;;;23.70;99.90;;;;;;6153008;23;20411;-90
2022/05/23 07:19:26;;;;;;;3.50;3.33;;;23.90;99.90;;;;;;6153827;23;20401;-91
2022/05/23 07:22:47;;;;;;;4.63;3.70;;;24.00;98.90;;;;;;6159716;23;20910;-90
2022/05/23 07:29:43;;;;;;;6.83;3.20;;;25.20;93.40;;;;;;6175144;23;20763;-91
2022/05/23 07:33:11;;;;;;;3.30;3.17;;;25.40;94.00;;;;;;6167280;23;20412;-91
2022/05/23 07:36:36;;;;;;;3.20;3.07;;;26.10;85.90;;;;;;6113007;23;20470;-91
2022/05/23 07:40:08;;;;;;;2.80;2.80;;;26.30;85.10;;;;;;6122429;23;20446;-91
2022/05/23 07:43:35;;;;;;;3.10;3.00;;;27.20;84.00;;;;;;6121380;23;20388;-89
2022/05/23 07:46:56;;;;;;;4.23;4.03;;;27.40;82.00;;;;;;6117498;23;20854;-92
2022/05/23 07:50:46;;;;;;;3.20;3.10;;;28.50;78.50;;;;;;6116940;23;20852;-91
2022/05/23 08:00:55;;;;;;;2.90;2.73;;;28.60;71.50;;;;;;6117911;23;20431;-90
2022/05/23 08:04:21;;;;;;;3.43;3.13;;;28.60;68.90;;;;;;6119940;23;20389;-90
2022/05/23 08:20:39;;;;;;;2.53;2.53;;;29.30;58.90;;;;;;5521864;22;15051098;-89
2022/05/23 08:24:03;;;;;;;2.30;2.20;;;34.20;51.30;;;;;;6155643;23;20168;-87
2022/05/23 08:27:29;;;;;;;2.77;2.57;;;31.40;49.20;;;;;;6159959;23;20388;-90
2022/05/23 08:30:58;;;;;;;3.13;2.87;;;30.30;49.90;;;;;;6164787;23;20460;-89
2022/05/23 08:34:23;;;;;;;2.83;2.63;;;29.70;50.80;;;;;;6161755;23;20878;-91
2022/05/23 08:37:06;;;;;;;2.60;2.60;;;29.20;52.00;;;;;;6157366;23;20391;-90
2022/05/23 08:39:47;;;;;;;2.70;2.70;;;29.50;51.00;;;;;;6158966;23;20397;-90
2022/05/23 08:42:29;;;;;;;3.60;3.50;;;32.80;50.40;;;;;;6129468;23;20144;-90
2022/05/23 08:45:37;;;;;;;;;;;;;;;;;;;;;
2022/05/23 08:48:24;;;;;;;2.90;2.90;;;31.80;48.60;;;;;;6159921;23;20408;-92
2022/05/23 08:54:35;;;;;;;2.70;2.50;;;33.40;46.60;;;;;;6160444;23;20403;-92
2022/05/23 09:00:15;;;;;;;2.77;2.67;;;32.70;61.20;;;;;;6075003;23;20408;-91
2022/05/23 09:03:14;;;;;;;3.07;2.80;;;32.70;48.20;;;;;;6130551;23;20376;-91
2022/05/23 09:05:51;;;;;;;5.03;3.23;;;32.30;48.00;;;;;;6155230;23;20394;-88
2022/05/23 09:08:20;;;;;;;3.00;2.80;;;32.70;47.70;;;;;;6129495;23;20387;-86
2022/05/23 09:11:13;;;;;;;3.30;3.20;;;31.20;49.10;;;;;;6128986;23;21024;-92
2022/05/23 09:13:45;;;;;;;8.17;7.50;;;31.20;49.00;;;;;;6130097;23;20891;-92
2022/05/23 09:17:02;;;;;;;3.30;3.20;;;30.70;50.00;;;;;;6131982;23;20460;-93
2022/05/23 09:20:36;;;;;;;3.17;3.10;;;31.20;49.10;;;;;;6170903;23;20481;-90
2022/05/23 09:23:45;;;;;;;3.00;3.00;;;29.80;49.70;;;;;;6174981;22;20413;-87
2022/05/23 09:27:10;;;;;;;3.03;2.90;;;29.90;49.70;;;;;;6177090;23;20399;-88
2022/05/23 09:30:35;;;;;;;3.97;3.60;;;29.90;51.70;;;;;;6175568;23;20403;-90
2022/05/23 09:34:04;;;;;;;3.10;2.90;;;29.80;52.10;;;;;;6178506;23;20390;-89
2022/05/23 09:37:48;;;;;;;3.20;3.03;;;30.20;50.10;;;;;;6172732;23;20543;-87
2022/05/23 09:41:18;;;;;;;2.77;2.67;;;31.70;49.10;;;;;;6182201;22;20399;-88
2022/05/23 09:48:06;;;;;;;2.80;2.70;;;31.80;49.30;;;;;;6191616;23;20413;-89
2022/05/23 09:51:40;;;;;;;2.50;2.50;;;31.80;49.50;;;;;;6182860;23;20389;-90
2022/05/23 09:54:58;;;;;;;3.37;3.13;;;32.70;48.70;;;;;;6183234;23;20415;-89
2022/05/23 09:58:29;;;;;;;2.77;2.60;;;31.90;45.40;;;;;;6186003;23;20458;-89
2022/05/23 10:01:55;;;;;;;2.57;2.50;;;34.40;46.70;;;;;;6186087;23;20392;-89
2022/05/23 10:05:46;;;;;;;2.70;2.70;;;35.00;46.10;;;;;;6187569;23;20391;-92
2022/05/23 10:09:03;;;;;;;5.33;5.10;;;33.90;42.80;;;;;;6185151;23;20456;-91
2022/05/23 10:12:43;;;;;;;2.87;2.67;;;35.70;44.30;;;;;;6186716;23;20387;-92
2022/05/23 10:16:09;;;;;;;4.63;2.20;;;35.70;43.80;;;;;;6178920;23;20501;-92
2022/05/23 10:19:32;;;;;;;2.77;2.67;;;36.40;43.30;;;;;;6191003;23;20449;-91
2022/05/23 10:22:57;;;;;;;2.53;2.33;;;35.60;44.00;;;;;;6179314;23;20395;-89
2022/05/23 10:26:13;;;;;;;3.30;2.87;;;33.30;44.20;;;;;;6182437;23;20834;-92
2022/05/23 10:29:48;;;;;;;2.40;2.40;;;33.80;44.10;;;;;;6180578;22;20910;-89
2022/05/23 10:35:44;;;;;;;2.97;2.67;;;35.70;42.60;;;;;;6117761;23;20456;-92
2022/05/23 10:42:11;;;;;;;3.73;3.43;;;35.20;47.40;;;;;;6120468;23;20515;-93
2022/05/23 10:45:41;;;;;;;3.13;2.93;;;33.30;48.50;;;;;;6136520;23;20420;-91
2022/05/23 10:48:41;;;;;;;4.83;4.27;;;32.00;50.10;;;;;;6132153;23;20381;-90
2022/05/23 10:51:21;;;;;;;2.87;2.87;;;30.40;50.50;;;;;;6134092;23;20453;-91
2022/05/23 10:54:12;;;;;;;2.73;2.73;;;30.10;50.20;;;;;;6114299;23;20396;-92
2022/05/23 10:56:49;;;;;;;2.67;2.10;;;30.50;51.90;;;;;;6114641;23;20462;-92
2022/05/23 10:59:58;;;;;;;2.83;2.73;;;29.60;51.70;;;;;;6115942;23;20938;-89
2022/05/23 11:03:12;;;;;;;4.23;2.33;;;29.40;52.30;;;;;;6116307;23;20377;-92
2022/05/23 11:06:10;;;;;;;2.70;2.50;;;30.10;53.00;;;;;;6116089;23;20385;-92
2022/05/23 11:09:18;;;;;;;2.20;2.10;;;29.70;53.70;;;;;;6119638;23;20401;-88
2022/05/23 11:12:22;;;;;;;2.97;2.97;;;31.10;52.20;;;;;;6122117;23;20381;-93
2022/05/23 11:15:01;;;;;;;2.97;2.67;;;31.40;51.70;;;;;;6118560;23;20403;-93
2022/05/23 11:17:39;;;;;;;3.10;2.53;;;31.80;51.90;;;;;;6117933;23;20451;-93
2022/05/23 11:25:44;;;;;;;2.73;2.63;;;31.90;50.30;;;;;;6135355;23;20520;-92
2022/05/23 11:34:52;;;;;;;2.50;2.40;;;31.90;52.10;;;;;;6134272;23;20369;-93
2022/05/23 11:37:43;;;;;;;2.50;2.37;;;32.40;50.90;;;;;;6070316;23;20398;-92
2022/05/23 11:41:04;;;;;;;2.80;2.60;;;31.70;53.00;;;;;;6073185;23;20386;-93
2022/05/23 11:43:33;;;;;;;2.30;2.30;;;32.40;50.70;;;;;;6062136;23;20450;-91
2022/05/23 11:46:00;;;;;;;4.70;2.00;;;33.30;52.10;;;;;;6099071;23;20515;-90
2022/05/23 11:48:39;;;;;;;3.47;3.27;;;33.60;51.40;;;;;;6072142;23;20385;-90
2022/05/23 11:51:39;;;;;;;2.37;2.30;;;34.10;51.20;;;;;;6071139;23;20853;-92
2022/05/23 11:54:31;;;;;;;2.27;2.17;;;34.80;49.50;;;;;;6096072;23;20378;-93
2022/05/23 11:57:14;;;;;;;2.53;2.30;;;33.40;49.50;;;;;;6067924;23;20698;-88
2022/05/23 11:59:39;;;;;;;2.90;2.80;;;33.30;52.00;;;;;;6087905;23;20402;-88
2022/05/23 12:02:11;;;;;;;2.63;2.40;;;33.60;51.70;;;;;;6067084;23;20433;-92
2022/05/23 12:04:59;;;;;;;3.37;3.17;;;33.90;51.20;;;;;;6094560;23;20216;-93
2022/05/23 12:07:34;;;;;;;5.10;4.77;;;33.80;51.40;;;;;;6081800;23;20390;-93
2022/05/23 12:10:22;;;;;;;2.80;2.50;;;34.00;51.20;;;;;;6066742;23;20382;-92
2022/05/23 12:12:55;;;;;;;2.80;2.80;;;33.00;49.70;;;;;;6067828;23;20405;-92
2022/05/23 12:15:42;;;;;;;2.60;2.50;;;34.30;51.70;;;;;;6067749;23;20462;-92
2022/05/23 12:18:27;;;;;;;2.50;2.40;;;36.10;50.50;;;;;;6066256;23;20456;-92
2022/05/23 12:20:55;;;;;;;2.53;2.43;;;35.30;51.50;;;;;;6069094;23;20381;-93
2022/05/23 12:23:36;;;;;;;2.70;2.60;;;35.70;51.70;;;;;;6092750;23;20401;-90
2022/05/23 12:26:21;;;;;;;3.13;3.03;;;35.40;52.40;;;;;;6067979;23;20437;-91
2022/05/23 12:28:57;;;;;;;6.93;6.63;;;34.60;53.10;;;;;;6062634;23;20425;-89
2022/05/23 12:31:28;;;;;;;5.40;4.67;;;35.10;52.30;;;;;;6068435;23;20584;-90
2022/05/23 12:34:02;;;;;;;7.37;6.87;;;34.10;52.10;;;;;;6060608;23;20425;-90
2022/05/23 12:36:34;;;;;;;3.90;3.60;;;33.40;55.50;;;;;;6069299;23;20441;-90
2022/05/23 12:39:21;;;;;;;3.30;3.30;;;32.70;55.30;;;;;;6067297;23;20784;-92
2022/05/23 12:41:56;;;;;;;3.60;3.00;;;32.50;54.50;;;;;;6065118;23;20428;-90
2022/05/23 12:45:04;;;;;;;3.93;3.60;;;32.10;55.70;;;;;;6094032;23;20428;-92
2022/05/23 12:47:53;;;;;;;3.63;3.43;;;31.10;56.10;;;;;;6097605;23;20423;-88
2022/05/23 12:50:35;;;;;;;3.40;3.13;;;30.70;56.70;;;;;;6063339;23;20397;-85
2022/05/23 12:53:59;;;;;;;3.27;3.10;;;30.60;57.60;;;;;;6063145;23;20762;-86
2022/05/23 12:56:43;;;;;;;4.33;3.90;;;30.90;59.10;;;;;;6069702;23;20448;-88
2022/05/23 12:59:34;;;;;;;4.40;4.20;;;29.50;58.10;;;;;;6091920;23;20503;-87
2022/05/23 13:02:29;;;;;;;3.50;3.30;;;29.60;59.10;;;;;;6094378;23;20378;-90
2022/05/23 13:05:10;;;;;;;3.57;3.47;;;30.00;63.70;;;;;;6093996;23;20722;-87
2022/05/23 13:07:49;;;;;;;3.73;3.53;;;28.70;66.80;;;;;;6097425;23;20404;-89
2022/05/23 13:10:37;;;;;;;3.90;3.60;;;29.00;63.40;;;;;;6065724;23;20424;-89
2022/05/23 13:13:33;;;;;;;3.70;3.60;;;28.40;66.80;;;;;;6063586;23;20370;-89
2022/05/23 13:16:28;;;;;;;4.33;4.13;;;28.20;62.50;;;;;;6066638;23;20425;-89
2022/05/23 13:22:05;;;;;;;4.13;3.87;;;28.00;68.70;;;;;;6095890;23;20440;-90
2022/05/23 13:24:55;;;;;;;8.67;8.20;;;27.90;65.80;;;;;;6090770;23;20432;-88
2022/05/23 13:27:33;;;;;;;5.83;5.53;;;28.70;70.50;;;;;;6072353;23;20480;-90
2022/05/23 13:30:06;;;;;;;4.67;4.33;;;28.40;73.60;;;;;;6066989;23;20710;-89
2022/05/23 13:32:33;;;;;;;4.10;4.00;;;27.10;65.40;;;;;;6090958;23;20369;-89
2022/05/23 13:34:59;;;;;;;4.67;4.40;;;26.50;64.80;;;;;;6063358;23;20428;-90
2022/05/23 13:37:37;;;;;;;3.80;3.60;;;26.30;65.40;;;;;;6087193;23;20421;-90
2022/05/23 13:40:15;;;;;;;6.27;6.03;;;26.60;66.90;;;;;;6095309;23;20416;-91
2022/05/23 13:42:44;;;;;;;9.10;8.53;;;25.90;66.30;;;;;;6068421;23;21264;-88
2022/05/23 13:45:28;;;;;;;7.27;6.77;;;25.70;62.10;;;;;;6101297;23;20366;-91
2022/05/23 13:48:02;;;;;;;4.17;4.07;;;25.70;63.60;;;;;;6071911;23;20868;-90
2022/05/23 13:50:39;;;;;;;4.57;4.20;;;25.80;68.20;;;;;;6071260;23;20401;-89
2022/05/23 13:53:18;;;;;;;4.30;4.10;;;25.70;69.00;;;;;;6067013;23;20912;-90
2022/05/23 13:56:26;;;;;;;5.40;5.13;;;25.30;74.80;;;;;;6089516;23;20861;-90
2022/05/23 13:59:52;;;;;;;5.30;4.83;;;24.20;78.80;;;;;;6098862;23;21179;-91
2022/05/23 14:03:17;;;;;;;5.10;4.77;;;24.10;97.40;;;;;;6099270;23;20716;-91
2022/05/23 14:06:45;;;;;;;4.83;4.43;;;24.00;98.40;;;;;;6098674;23;20386;-89
2022/05/23 14:10:13;;;;;;;5.50;5.10;;;23.50;99.90;;;;;;6101391;23;20917;-89
2022/05/23 14:13:40;;;;;;;5.80;5.30;;;23.30;99.90;;;;;;6103089;23;20402;-91
2022/05/23 14:17:06;;;;;;;6.27;5.57;;;23.00;99.90;;;;;;6105392;23;20393;-91
2022/05/23 14:20:29;;;;;;;6.10;5.60;;;22.90;99.90;;;;;;6094370;23;20400;-89
2022/05/23 14:23:44;;;;;;;4.87;4.57;;;22.80;99.90;;;;;;6090574;23;20402;-90
2022/05/23 14:27:08;;;;;;;5.77;5.30;;;22.80;99.90;;;;;;6088676;23;20437;-90
2022/05/23 14:30:40;;;;;;;6.13;5.73;;;25.10;99.90;;;;;;6089945;23;20468;-88
2022/05/23 14:34:02;;;;;;;5.50;5.30;;;22.40;99.90;;;;;;6089752;23;20452;-89
2022/05/23 14:37:28;;;;;;;6.30;5.90;;;22.70;99.90;;;;;;6091809;23;20402;-88
2022/05/23 14:40:59;;;;;;;8.23;7.70;;;22.40;99.90;;;;;;6095670;23;20402;-87
2022/05/23 14:43:48;;;;;;;7.87;7.10;;;23.20;99.90;;;;;;6087706;23;20394;-92
2022/05/23 14:46:28;;;;;;;8.33;7.53;;;23.70;99.90;;;;;;6074055;23;20422;-91
2022/05/23 14:49:42;;;;;;;6.60;5.97;;;23.50;99.90;;;;;;6076224;23;20374;-92
2022/05/23 14:52:35;;;;;;;6.30;5.80;;;24.30;99.90;;;;;;6103232;23;20430;-87
2022/05/23 14:55:21;;;;;;;7.03;6.43;;;25.40;99.90;;;;;;6076882;23;20401;-90
2022/05/23 15:00:52;;;;;;;5.70;5.40;;;24.50;99.90;;;;;;6099891;23;20401;-90
2022/05/23 15:03:25;;;;;;;5.27;5.07;;;24.20;99.90;;;;;;6068084;23;20734;-90
2022/05/23 15:06:30;;;;;;;6.37;6.07;;;24.00;99.90;;;;;;6069640;23;20435;-90
2022/05/23 15:09:00;;;;;;;6.93;6.33;;;23.60;99.90;;;;;;6098226;23;20401;-90
2022/05/23 15:11:39;;;;;;;6.27;5.93;;;23.70;99.90;;;;;;6103375;23;20409;-92
2022/05/23 15:14:27;;;;;;;7.37;6.83;;;23.50;99.90;;;;;;6105879;23;20394;-91
2022/05/23 15:17:52;;;;;;;6.50;6.20;;;23.60;99.90;;;;;;6100129;23;20404;-92
2022/05/23 15:21:17;;;;;;;6.70;6.13;;;23.60;99.90;;;;;;6099518;23;20401;-90
2022/05/23 15:24:45;;;;;;;6.33;5.77;;;23.60;99.90;;;;;;6095592;23;20405;-90
2022/05/23 15:28:08;;;;;;;6.03;5.73;;;23.60;99.90;;;;;;6092577;23;20424;-89
2022/05/23 15:31:34;;;;;;;5.83;5.53;;;23.70;99.90;;;;;;6093698;23;20390;-90
2022/05/23 15:34:59;;;;;;;8.67;6.83;;;23.80;99.90;;;;;;6089779;23;20401;-87
2022/05/23 15:38:24;;;;;;;10.07;6.20;;;23.80;99.90;;;;;;6096800;23;20434;-91
2022/05/23 15:45:34;;;;;;;6.17;5.80;;;23.90;99.90;;;;;;6128167;23;20392;-91
2022/05/23 15:49:02;;;;;;;5.70;5.50;;;24.90;99.90;;;;;;6105856;23;20417;-91
2022/05/23 15:52:28;;;;;;;6.60;6.30;;;23.00;99.90;;;;;;6099801;23;20393;-91
2022/05/23 15:55:56;;;;;;;8.90;6.33;;;23.40;99.90;;;;;;6106456;23;20759;-89
2022/05/23 15:59:27;;;;;;;5.20;5.00;;;23.50;99.90;;;;;;6092641;23;20441;-91
2022/05/23 16:02:51;;;;;;;7.13;6.57;;;22.60;99.90;;;;;;6095566;23;20386;-91
2022/05/23 16:06:15;;;;;;;6.23;5.93;;;23.10;99.90;;;;;;6093495;23;20393;-90
2022/05/23 16:09:41;;;;;;;7.10;6.70;;;23.20;99.90;;;;;;6092040;23;20409;-90
2022/05/23 16:13:06;;;;;;;6.07;5.80;;;22.70;99.90;;;;;;6088642;23;20396;-90
2022/05/23 16:16:32;;;;;;;12.10;7.23;;;22.60;99.90;;;;;;6093388;23;20390;-90
2022/05/23 16:19:57;;;;;;;7.67;7.17;;;22.50;99.90;;;;;;6089442;23;20446;-90
2022/05/23 16:22:48;;;;;;;7.70;7.20;;;22.40;99.90;;;;;;6087884;23;20401;-89
2022/05/23 16:25:16;;;;;;;8.00;7.50;;;22.10;99.90;;;;;;6064219;23;20450;-89
2022/05/23 16:27:51;;;;;;;8.10;7.57;;;22.00;99.90;;;;;;6070538;23;20394;-89
2022/05/23 16:30:59;;;;;;;7.83;7.03;;;21.90;99.90;;;;;;6052220;23;20405;-89
2022/05/23 16:37:46;;;;;;;8.03;7.43;;;21.60;99.90;;;;;;6089740;23;20434;-89
2022/05/23 16:41:12;;;;;;;8.20;7.40;;;21.40;99.90;;;;;;6093405;23;20699;-89
2022/05/23 16:44:42;;;;;;;10.47;8.40;;;21.40;99.90;;;;;;6092035;23;20416;-90
2022/05/23 16:48:12;;;;;;;8.20;7.37;;;21.50;99.90;;;;;;6095245;23;20385;-92
2022/05/23 16:51:39;;;;;;;7.80;7.33;;;21.20;99.90;;;;;;6099012;23;20425;-92
2022/05/23 16:55:07;;;;;;;7.73;7.20;;;21.20;99.90;;;;;;6095125;23;20397;-91
2022/05/23 16:57:50;;;;;;;6.77;6.20;;;;;;;;;;6099031;23;20475;-90
2022/05/23 17:00:56;;;;;;;5.97;5.67;;;20.70;99.90;;;;;;6069068;23;20888;-92
2022/05/23 17:04:31;;;;;;;6.70;6.20;;;20.50;99.90;;;;;;6103652;23;20414;-90
2022/05/23 17:07:57;;;;;;;5.67;5.17;;;20.40;99.90;;;;;;6098250;23;20439;-92
2022/05/23 17:11:23;;;;;;;6.13;5.73;;;20.50;99.90;;;;;;6102050;23;20397;-91
2022/05/23 17:14:48;;;;;;;12.10;10.80;;;20.50;99.90;;;;;;6098164;23;20700;-90
2022/05/23 17:18:14;;;;;;;5.63;5.27;;;20.50;99.90;;;;;;6090269;23;20441;-91
2022/05/23 17:22:03;;;;;;;;;;;;;;;;;;;;;
2022/05/23 17:25:20;;;;;;;4.50;4.30;;;21.00;99.90;;;;;;6050828;23;20455;-91
2022/05/23 17:28:48;;;;;;;3.87;3.50;;;20.90;99.90;;;;;;6101647;23;20461;-91
2022/05/23 17:32:14;;;;;;;4.60;4.30;;;21.00;99.90;;;;;;6102873;23;20398;-93